Time;durP1;ratioP1;P1;durP2;ratioP2;P2;SDS_P1;SDS_P2;PMS_P1;PMS_P2;Temp;Humidity;BMP_temperature;BMP_pressure;BME280_temperature;BME280_humidity;BME280_pressure;Samples;Min_cycle;Max_cycle;Signal;HPM_P1;HPM_P2
2023/06/19 00:00:49;;;;;;;11.70;6.70;;;;;;;17.02;100.00;100864.50;5073861;28;20473;-66
2023/06/19 00:03:15;;;;;;;12.87;7.13;;;;;;;17.03;100.00;100859.81;5073490;28;20441;-66
2023/06/19 00:05:42;;;;;;;12.93;6.33;;;;;;;17.09;100.00;100861.22;5073220;28;20556;-67
2023/06/19 00:08:09;;;;;;;11.27;6.10;;;;;;;17.09;100.00;100864.78;5073374;28;20507;-67
2023/06/19 00:10:36;;;;;;;12.67;6.03;;;;;;;17.12;100.00;100863.28;5073001;28;20502;-68
2023/06/19 00:13:03;;;;;;;11.10;6.60;;;;;;;17.10;100.00;100862.81;5073625;28;20532;-66
2023/06/19 00:15:30;;;;;;;11.47;6.10;;;;;;;17.12;100.00;100875.03;5072784;28;20489;-66
2023/06/19 00:17:58;;;;;;;12.00;6.30;;;;;;;17.17;100.00;100876.75;5073114;28;20524;-66
2023/06/19 00:20:25;;;;;;;9.63;5.23;;;;;;;17.20;100.00;100875.28;5072884;28;20449;-66
2023/06/19 00:22:52;;;;;;;12.37;6.40;;;;;;;17.24;100.00;100868.78;5072676;28;21023;-66
2023/06/19 00:25:19;;;;;;;23.27;6.17;;;;;;;17.27;100.00;100872.81;5073279;28;20461;-66
2023/06/19 00:27:46;;;;;;;18.57;6.50;;;;;;;17.29;100.00;100878.72;5072610;28;20955;-66
2023/06/19 00:30:13;;;;;;;11.47;5.93;;;;;;;17.32;100.00;100867.91;5073174;28;20860;-67
2023/06/19 00:32:46;;;;;;;13.07;6.50;;;;;;;17.36;100.00;100873.50;5073176;28;20437;-65
2023/06/19 00:35:15;;;;;;;11.03;5.67;;;;;;;17.39;100.00;100868.13;5073395;28;20488;-67
2023/06/19 00:37:44;;;;;;;10.60;5.63;;;;;;;17.42;100.00;100866.66;5073123;28;20485;-66
2023/06/19 00:40:16;;;;;;;13.37;6.10;;;;;;;17.46;100.00;100872.25;5072764;28;20805;-66
2023/06/19 00:42:42;;;;;;;10.90;6.50;;;;;;;17.48;100.00;100876.22;5073213;28;20460;-66
2023/06/19 00:45:10;;;;;;;10.27;6.27;;;;;;;17.52;100.00;100874.41;5073103;28;20516;-66
2023/06/19 00:47:37;;;;;;;12.10;6.30;;;;;;;17.56;100.00;100869.06;5076833;28;20858;-65
2023/06/19 00:50:04;;;;;;;11.33;6.37;;;;;;;17.62;100.00;100873.19;5076878;28;20500;-66
2023/06/19 00:52:33;;;;;;;11.47;5.80;;;;;;;17.63;100.00;100878.31;5077252;28;20493;-67
2023/06/19 00:55:00;;;;;;;13.77;5.70;;;;;;;17.65;100.00;100872.50;5088642;28;20492;-66
2023/06/19 00:59:58;;;;;;;9.67;5.63;;;;;;;17.66;100.00;100865.84;5075464;28;20465;-73
2023/06/19 01:02:25;;;;;;;12.10;6.90;;;;;;;17.68;100.00;100863.59;5076811;28;20536;-73
2023/06/19 01:04:52;;;;;;;13.50;6.53;;;;;;;17.73;100.00;100862.56;5076850;28;20448;-73
2023/06/19 01:07:28;;;;;;;11.83;6.73;;;;;;;17.74;100.00;100854.03;5076399;28;20437;-72
2023/06/19 01:10:00;;;;;;;14.00;6.50;;;;;;;17.74;100.00;100851.28;5056334;28;20462;-72
2023/06/19 01:12:34;;;;;;;14.80;5.70;;;;;;;17.74;100.00;100856.75;5056665;28;20426;-72
2023/06/19 01:15:05;;;;;;;11.87;6.20;;;;;;;17.72;100.00;100858.22;5056810;28;20436;-72
2023/06/19 01:17:32;;;;;;;14.50;7.07;;;;;;;17.70;100.00;100852.28;5056539;28;20477;-72
2023/06/19 01:20:06;;;;;;;10.00;5.30;;;;;;;17.67;100.00;100845.56;5056129;28;20835;-72
2023/06/19 01:22:34;;;;;;;11.13;5.97;;;;;;;17.63;100.00;100852.88;5056401;28;20854;-72
2023/06/19 01:25:00;;;;;;;12.10;6.70;;;;;;;17.63;100.00;100858.34;5056564;28;20445;-72
2023/06/19 01:27:29;;;;;;;12.97;6.93;;;;;;;17.62;100.00;100854.81;5056153;28;20438;-72
2023/06/19 01:29:57;;;;;;;10.50;5.60;;;;;;;17.65;100.00;100848.63;5056249;28;20450;-72
2023/06/19 01:32:30;;;;;;;12.33;6.50;;;;;;;17.68;100.00;100841.69;5056207;28;20470;-72
2023/06/19 01:34:59;;;;;;;10.93;4.93;;;;;;;17.70;100.00;100844.06;5056201;28;20426;-71
2023/06/19 01:37:27;;;;;;;10.23;6.07;;;;;;;17.68;100.00;100838.94;5055953;28;20482;-72
2023/06/19 01:39:56;;;;;;;12.20;6.30;;;;;;;17.73;100.00;100832.44;5056094;28;20817;-72
2023/06/19 01:42:23;;;;;;;10.83;5.43;;;;;;;17.73;100.00;100837.91;5056047;28;20532;-70
2023/06/19 01:44:50;;;;;;;10.57;5.13;;;;;;;17.76;100.00;100837.25;5055695;28;20972;-72
2023/06/19 01:47:19;;;;;;;10.17;5.00;;;;;;;17.78;100.00;100835.75;5055956;28;20520;-72
2023/06/19 01:49:46;;;;;;;10.37;5.90;;;;;;;17.77;100.00;100828.69;5055787;28;20488;-72
2023/06/19 01:52:13;;;;;;;12.27;6.27;;;;;;;17.80;100.00;100828.00;5055542;28;20955;-72
2023/06/19 01:54:40;;;;;;;9.17;5.77;;;;;;;17.79;100.00;100826.38;5055741;28;20446;-72
2023/06/19 01:57:09;;;;;;;12.07;6.57;;;;;;;17.81;100.00;100829.59;5055082;28;20507;-72
2023/06/19 01:59:36;;;;;;;11.33;6.50;;;;;;;17.85;100.00;100826.97;5055267;28;20474;-72
2023/06/19 02:02:04;;;;;;;12.93;6.40;;;;;;;17.86;100.00;100817.59;5055671;28;20442;-72
2023/06/19 02:04:30;;;;;;;10.70;6.00;;;;;;;17.87;100.00;100822.72;5055287;28;20450;-73
2023/06/19 02:06:57;;;;;;;13.00;6.23;;;;;;;17.93;100.00;100817.00;5055238;28;20450;-72
2023/06/19 02:09:23;;;;;;;11.47;6.30;;;;;;;17.96;100.00;100816.31;5055451;28;20466;-72
2023/06/19 02:11:50;;;;;;;10.57;5.17;;;;;;;17.97;100.00;100804.22;5055193;28;20481;-72
2023/06/19 02:14:18;;;;;;;10.00;5.37;;;;;;;17.99;100.00;100804.69;5055461;28;20446;-72
2023/06/19 02:16:44;;;;;;;10.20;6.00;;;;;;;18.01;99.29;100796.91;5055219;28;20570;-73
2023/06/19 02:19:11;;;;;;;18.10;6.30;;;;;;;18.06;98.72;100807.63;5055304;28;20502;-73
2023/06/19 02:21:38;;;;;;;9.90;5.60;;;;;;;18.12;98.65;100806.25;5055259;28;20481;-73
2023/06/19 02:24:05;;;;;;;12.10;6.67;;;;;;;18.13;98.69;100803.16;5055312;28;20462;-73
2023/06/19 02:26:32;;;;;;;11.10;6.73;;;;;;;18.15;99.15;100800.09;5055469;28;20445;-73
2023/06/19 02:28:59;;;;;;;9.43;5.50;;;;;;;18.18;99.22;100795.84;5055115;28;20803;-73
2023/06/19 02:31:27;;;;;;;12.63;6.73;;;;;;;18.19;99.36;100794.69;5054867;28;20477;-73
2023/06/19 02:33:53;;;;;;;11.80;6.50;;;;;;;18.21;99.29;100795.94;5054826;28;20496;-72
2023/06/19 02:36:20;;;;;;;9.63;5.70;;;;;;;18.21;98.80;100798.69;5054654;28;20481;-71
2023/06/19 02:38:47;;;;;;;11.60;6.67;;;;;;;18.22;99.24;100794.78;5054553;28;20569;-73
2023/06/19 02:41:14;;;;;;;11.87;6.30;;;;;;;18.23;99.02;100799.13;5054948;28;20446;-73
2023/06/19 02:43:41;;;;;;;12.83;6.40;;;;;;;18.25;99.09;100799.59;5054922;28;20863;-73
2023/06/19 02:46:07;;;;;;;13.10;6.40;;;;;;;18.24;99.15;100792.53;5054547;28;20500;-73
2023/06/19 02:48:35;;;;;;;11.40;5.50;;;;;;;18.24;99.19;100792.53;5054406;28;20469;-73
2023/06/19 02:51:02;;;;;;;12.73;6.40;;;;;;;18.25;98.62;100788.63;5054763;28;20533;-73
2023/06/19 02:53:29;;;;;;;14.37;6.37;;;;;;;18.26;97.76;100795.69;5054619;28;20820;-72
2023/06/19 02:55:55;;;;;;;13.60;6.40;;;;;;;18.27;97.30;100791.00;5054653;28;20446;-73
2023/06/19 02:58:22;;;;;;;15.23;6.70;;;;;;;18.30;97.47;100784.84;5054300;28;20500;-73
2023/06/19 03:00:49;;;;;;;11.60;6.40;;;;;;;18.29;97.12;100778.56;5054599;28;20525;-73
2023/06/19 03:03:16;;;;;;;12.43;5.90;;;;;;;18.32;97.25;100785.28;5054453;28;20434;-71
2023/06/19 03:05:44;;;;;;;10.53;5.93;;;;;;;18.34;97.17;100794.75;5054152;28;21003;-71
2023/06/19 03:08:10;;;;;;;9.20;5.40;;;;;;;18.38;96.91;100792.13;5053101;28;20973;-72
2023/06/19 03:10:37;;;;;;;12.17;6.63;;;;;;;18.40;96.81;100792.56;5054382;28;20446;-73
2023/06/19 03:13:04;;;;;;;12.30;6.60;;;;;;;18.42;96.98;100798.50;5054309;28;20442;-72
2023/06/19 03:15:30;;;;;;;11.43;6.80;;;;;;;18.44;95.92;100795.41;5054269;28;20474;-72
2023/06/19 03:17:57;;;;;;;13.93;6.10;;;;;;;18.46;94.14;100793.09;5054079;28;20490;-72
2023/06/19 03:20:23;;;;;;;12.37;6.47;;;;;;;18.47;92.79;100797.47;5054183;28;20882;-72
2023/06/19 03:22:51;;;;;;;11.33;6.50;;;;;;;18.49;91.37;100804.19;5054128;28;20470;-72
2023/06/19 03:25:19;;;;;;;11.27;5.80;;;;;;;18.52;91.49;100808.19;5053822;28;20453;-72
2023/06/19 03:27:46;;;;;;;14.20;6.27;;;;;;;18.58;91.94;100809.50;5053967;28;20553;-80
2023/06/19 03:30:13;;;;;;;11.90;7.00;;;;;;;18.63;92.54;100814.75;5055754;28;20426;-70
2023/06/19 03:32:39;;;;;;;11.63;6.27;;;;;;;18.69;93.36;100807.09;5053585;28;21019;-70
2023/06/19 03:35:06;;;;;;;11.67;6.07;;;;;;;18.73;93.74;100811.56;5053634;28;20952;-70
2023/06/19 03:37:33;;;;;;;12.40;6.87;;;;;;;18.77;94.24;100817.13;5053722;28;20514;-70
2023/06/19 03:40:01;;;;;;;12.07;6.33;;;;;;;18.80;94.27;100819.97;5053539;28;20438;-71
2023/06/19 03:42:27;;;;;;;12.13;6.90;;;;;;;18.82;94.61;100817.69;5053766;28;20485;-70
2023/06/19 03:44:54;;;;;;;13.83;7.67;;;;;;;18.87;95.22;100816.63;5053407;28;20533;-71
2023/06/19 03:47:20;;;;;;;11.00;5.77;;;;;;;18.90;95.07;100824.13;5053897;28;20517;-70
2023/06/19 03:49:49;;;;;;;12.40;6.70;;;;;;;18.92;95.33;100812.81;5053579;28;20458;-69
2023/06/19 03:52:16;;;;;;;16.00;6.33;;;;;;;18.94;94.88;100816.00;5053542;28;20793;-70
2023/06/19 03:54:42;;;;;;;12.20;6.17;;;;;;;18.96;94.76;100816.47;5053559;28;20474;-70
2023/06/19 03:57:10;;;;;;;11.30;6.10;;;;;;;18.99;94.81;100815.75;5053362;28;20525;-70
2023/06/19 03:59:37;;;;;;;12.63;6.37;;;;;;;19.00;94.85;100817.34;5053276;28;20513;-70
2023/06/19 04:02:04;;;;;;;10.47;6.37;;;;;;;19.01;94.83;100810.72;5053489;28;20784;-71
2023/06/19 04:04:30;;;;;;;11.93;6.50;;;;;;;19.03;95.16;100805.66;5053381;28;20446;-72
2023/06/19 04:06:58;;;;;;;13.73;7.00;;;;;;;19.05;95.26;100800.63;5053364;28;20438;-70
2023/06/19 04:09:25;;;;;;;15.30;8.07;;;;;;;19.06;94.38;100783.78;5053327;28;20478;-70
2023/06/19 04:11:52;;;;;;;11.57;6.27;;;;;;;19.09;92.76;100776.78;5053240;28;20477;-70
2023/06/19 04:14:22;;;;;;;12.37;6.20;;;;;;;19.12;92.53;100793.38;5053251;28;20477;-69
2023/06/19 04:16:49;;;;;;;14.43;7.13;;;;;;;19.19;92.08;100797.44;5053337;28;20439;-69
2023/06/19 04:19:16;;;;;;;14.87;6.70;;;;;;;19.19;92.35;100802.94;5052773;28;20494;-69
2023/06/19 04:21:42;;;;;;;11.40;5.73;;;;;;;19.21;92.47;100806.91;5053056;28;20452;-69
2023/06/19 04:24:10;;;;;;;10.53;5.80;;;;;;;19.26;91.61;100803.91;5052823;28;20477;-69
2023/06/19 04:26:36;;;;;;;14.07;6.80;;;;;;;19.28;91.12;100812.59;5053069;28;20537;-69
2023/06/19 04:29:04;;;;;;;15.30;7.30;;;;;;;19.32;91.22;100807.19;5053352;28;20458;-69
2023/06/19 04:31:32;;;;;;;11.70;6.33;;;;;;;19.35;90.96;100809.22;5053005;28;20446;-69
2023/06/19 04:33:59;;;;;;;14.47;8.20;;;;;;;19.39;90.74;100816.41;5052720;28;20536;-69
2023/06/19 04:36:25;;;;;;;13.27;7.80;;;;;;;19.37;90.81;100812.41;5053208;28;20528;-69
2023/06/19 04:38:52;;;;;;;13.60;7.60;;;;;;;19.42;91.04;100818.41;5052542;28;20497;-69
2023/06/19 04:41:19;;;;;;;12.73;6.87;;;;;;;19.45;90.85;100814.19;5052907;28;20477;-70
2023/06/19 04:43:45;;;;;;;14.93;7.40;;;;;;;19.48;92.00;100812.66;5052808;28;20448;-69
2023/06/19 04:46:12;;;;;;;11.77;6.70;;;;;;;19.49;92.55;100814.28;5052614;28;20816;-69
2023/06/19 04:48:41;;;;;;;13.43;6.70;;;;;;;19.50;93.20;100819.41;5052829;28;20462;-69
2023/06/19 04:51:07;;;;;;;12.40;7.40;;;;;;;19.48;92.99;100820.91;5052514;28;20442;-70
2023/06/19 04:53:34;;;;;;;12.63;6.10;;;;;;;19.49;92.52;100820.56;5052763;28;20877;-69
2023/06/19 04:56:00;;;;;;;14.20;7.50;;;;;;;19.48;93.11;100826.38;5052880;28;20470;-77
2023/06/19 04:58:27;;;;;;;14.33;7.00;;;;;;;19.46;93.17;100829.50;5052328;28;20486;-69
2023/06/19 05:00:54;;;;;;;14.10;7.90;;;;;;;19.42;93.17;100823.13;5052674;28;20496;-69
2023/06/19 05:03:21;;;;;;;14.03;7.47;;;;;;;19.41;94.13;100830.56;5052462;28;20452;-68
2023/06/19 05:05:49;;;;;;;11.37;6.50;;;;;;;19.41;94.35;100833.31;5052717;28;20832;-69
2023/06/19 05:08:16;;;;;;;12.33;6.30;;;;;;;19.42;94.21;100832.16;5052850;28;20808;-71
2023/06/19 05:10:42;;;;;;;11.60;6.60;;;;;;;19.42;94.82;100834.91;5052700;28;20443;-69
2023/06/19 05:13:09;;;;;;;15.83;7.03;;;;;;;19.41;95.23;100832.53;5052390;28;21035;-68
2023/06/19 05:15:36;;;;;;;16.23;8.00;;;;;;;19.48;95.50;100840.13;5052623;28;20529;-69
2023/06/19 05:18:02;;;;;;;13.70;8.17;;;;;;;19.50;95.10;100835.88;5052541;28;20508;-70
2023/06/19 05:20:29;;;;;;;14.70;7.80;;;;;;;19.56;95.62;100836.41;5052547;28;20464;-69
2023/06/19 05:22:57;;;;;;;17.90;7.60;;;;;;;19.58;95.23;100842.38;5052518;28;20516;-69
2023/06/19 05:25:24;;;;;;;12.87;5.53;;;;;;;19.57;95.51;100840.78;5052254;28;20844;-69
2023/06/19 05:27:50;;;;;;;11.10;6.63;;;;;;;19.57;94.82;100835.28;5052490;28;20552;-69
2023/06/19 05:30:17;;;;;;;10.93;6.10;;;;;;;19.59;95.88;100838.44;5052271;28;20478;-69
2023/06/19 05:32:44;;;;;;;11.23;6.23;;;;;;;19.60;96.03;100837.28;5055194;28;20529;-69
2023/06/19 05:35:10;;;;;;;12.03;6.50;;;;;;;19.60;96.50;100840.88;5055951;28;20602;-69
2023/06/19 05:37:38;;;;;;;12.63;6.93;;;;;;;19.61;97.42;100847.97;5055931;28;20481;-69
2023/06/19 05:40:08;;;;;;;12.20;7.60;;;;;;;19.64;97.33;100840.97;5056079;28;20457;-70
2023/06/19 05:42:35;;;;;;;14.97;7.20;;;;;;;19.69;97.71;100828.91;5055684;28;20992;-69
2023/06/19 05:45:01;;;;;;;15.03;6.73;;;;;;;19.76;96.75;100838.13;5056000;28;20497;-69
2023/06/19 05:47:30;;;;;;;13.07;7.27;;;;;;;19.86;95.77;100831.25;5055868;28;20450;-69
2023/06/19 05:49:57;;;;;;;14.27;7.90;;;;;;;19.99;95.22;100823.69;5055604;28;20446;-69
2023/06/19 05:52:24;;;;;;;12.27;7.63;;;;;;;20.11;94.50;100831.84;5055877;28;20441;-69
2023/06/19 05:54:52;;;;;;;12.77;7.00;;;;;;;20.19;94.88;100832.75;5055808;28;20493;-69
2023/06/19 05:57:20;;;;;;;10.03;6.40;;;;;;;20.25;94.40;100829.38;5055785;28;20868;-69
2023/06/19 05:59:47;;;;;;;12.33;7.20;;;;;;;20.32;93.41;100843.31;5055155;28;20545;-69
2023/06/19 06:02:15;;;;;;;10.53;6.33;;;;;;;20.38;91.65;100830.84;5055757;28;20458;-69
2023/06/19 06:04:42;;;;;;;12.13;5.93;;;;;;;20.44;90.22;100827.78;5055631;28;20820;-69
2023/06/19 06:07:09;;;;;;;12.87;7.30;;;;;;;20.51;89.86;100822.47;5055551;28;20463;-69
2023/06/19 06:09:35;;;;;;;12.87;6.53;;;;;;;20.53;89.71;100828.41;5055485;28;20458;-69
2023/06/19 06:12:02;;;;;;;14.23;7.33;;;;;;;20.58;88.85;100831.66;5055497;28;20442;-70
2023/06/19 06:14:30;;;;;;;11.87;6.90;;;;;;;20.61;86.56;100828.19;5055489;28;20470;-72
2023/06/19 06:16:57;;;;;;;10.23;5.93;;;;;;;20.63;85.18;100831.38;5055381;28;20525;-72
2023/06/19 06:19:23;;;;;;;12.53;6.53;;;;;;;20.61;84.55;100828.19;5055252;28;20856;-71
2023/06/19 06:21:50;;;;;;;12.60;6.83;;;;;;;20.62;82.53;100835.28;5054981;28;20537;-71
2023/06/19 06:24:17;;;;;;;15.13;6.73;;;;;;;20.63;81.88;100847.09;5054935;28;20963;-71
2023/06/19 06:26:43;;;;;;;12.67;6.23;;;;;;;20.71;82.87;100842.53;5054945;28;20533;-71
2023/06/19 06:29:10;;;;;;;14.03;7.20;;;;;;;20.74;84.49;100848.09;5055112;28;20462;-71
2023/06/19 06:31:39;;;;;;;10.70;5.63;;;;;;;20.78;84.92;100848.97;5055043;28;20552;-71
2023/06/19 06:34:06;;;;;;;11.33;6.40;;;;;;;20.83;85.69;100854.19;5055021;28;20478;-71
2023/06/19 06:36:32;;;;;;;11.23;6.73;;;;;;;20.91;85.99;100850.41;5055015;28;20470;-70
2023/06/19 06:38:59;;;;;;;12.90;6.23;;;;;;;21.00;86.33;100850.16;5054623;28;20969;-71
2023/06/19 06:41:26;;;;;;;10.37;5.67;;;;;;;21.04;86.88;100850.25;5054877;28;20443;-68
2023/06/19 06:43:53;;;;;;;11.17;5.57;;;;;;;21.09;87.07;100847.19;5054683;28;20443;-69
2023/06/19 06:46:20;;;;;;;11.50;6.43;;;;;;;21.13;87.66;100850.81;5054551;28;20970;-69
2023/06/19 06:48:50;;;;;;;12.03;6.17;;;;;;;21.21;87.29;100849.78;5054664;28;20527;-69
2023/06/19 06:51:16;;;;;;;13.50;6.60;;;;;;;21.28;86.30;100847.13;5054901;28;20469;-69
2023/06/19 06:53:43;;;;;;;11.70;6.50;;;;;;;21.40;86.24;100846.97;5054637;28;20450;-69
2023/06/19 06:56:10;;;;;;;9.83;5.83;;;;;;;21.50;85.65;100845.56;5054354;28;20430;-69
2023/06/19 06:58:39;;;;;;;11.43;6.87;;;;;;;21.58;84.04;100846.47;5064821;22;20512;-82
2023/06/19 07:01:14;;;;;;;11.57;6.40;;;;;;;21.67;82.54;100844.25;5074895;28;20952;-83
2023/06/19 07:03:44;;;;;;;11.47;6.37;;;;;;;21.79;80.59;100852.31;5060791;28;20557;-82
2023/06/19 07:06:12;;;;;;;14.97;7.40;;;;;;;21.88;82.26;100854.81;5047756;22;20491;-67
2023/06/19 07:08:40;;;;;;;10.43;5.83;;;;;;;21.93;82.55;100848.97;5034107;28;20439;-67
2023/06/19 07:11:07;;;;;;;10.63;5.50;;;;;;;21.96;81.04;100853.75;5034426;28;20494;-67
2023/06/19 07:13:34;;;;;;;13.07;6.60;;;;;;;22.02;80.03;100852.25;5034450;28;20486;-67
2023/06/19 07:16:01;;;;;;;11.13;5.77;;;;;;;22.06;79.11;100861.38;5034474;28;20443;-67
2023/06/19 07:18:28;;;;;;;11.20;5.60;;;;;;;22.14;77.73;100857.59;5033906;28;20996;-67
2023/06/19 07:20:54;;;;;;;11.27;5.90;;;;;;;22.24;75.74;100864.44;5033994;28;20478;-67
2023/06/19 07:23:23;;;;;;;13.87;5.70;;;;;;;22.39;73.67;100862.66;5033910;28;20997;-67
2023/06/19 07:25:49;;;;;;;12.13;6.40;;;;;;;22.51;72.80;100858.84;5034176;28;20447;-66
2023/06/19 07:28:16;;;;;;;14.20;5.80;;;;;;;22.62;73.44;100860.59;5034162;28;20477;-67
2023/06/19 07:30:44;;;;;;;14.23;6.23;;;;;;;22.73;75.13;100863.47;5034048;28;20546;-67
2023/06/19 07:33:10;;;;;;;14.77;5.83;;;;;;;22.85;74.63;100868.75;5034093;28;20501;-67
2023/06/19 07:35:37;;;;;;;10.07;5.80;;;;;;;22.98;72.78;100874.03;5033723;28;20536;-66
2023/06/19 07:38:04;;;;;;;10.70;5.70;;;;;;;23.10;74.27;100873.75;5033587;28;20882;-65
2023/06/19 07:40:32;;;;;;;10.50;5.77;;;;;;;23.17;74.62;100871.06;5033812;28;20579;-66
2023/06/19 07:42:58;;;;;;;10.60;5.40;;;;;;;23.23;74.29;100882.56;5033805;28;20531;-66
2023/06/19 07:45:25;;;;;;;9.87;5.00;;;;;;;23.30;75.41;100871.59;5034156;28;20447;-67
2023/06/19 07:47:55;;;;;;;9.87;5.70;;;;;;;23.38;75.91;100876.81;5033820;28;20482;-66
2023/06/19 07:50:23;;;;;;;10.13;5.37;;;;;;;23.39;72.48;100870.09;5033750;28;20463;-67
2023/06/19 07:52:49;;;;;;;12.03;5.10;;;;;;;23.39;72.02;100872.84;5033724;28;20533;-66
2023/06/19 07:55:16;;;;;;;11.23;5.00;;;;;;;23.41;72.92;100873.25;5032864;28;20530;-67
2023/06/19 07:57:44;;;;;;;8.40;4.73;;;;;;;23.45;72.33;100878.03;5033357;28;20475;-66
2023/06/19 08:00:12;;;;;;;12.10;4.30;;;;;;;23.42;71.87;100880.41;5033455;28;20490;-66
2023/06/19 08:02:39;;;;;;;11.20;5.90;;;;;;;23.44;71.24;100880.00;5033529;28;20443;-66
2023/06/19 08:05:07;;;;;;;8.93;5.40;;;;;;;23.48;70.13;100880.84;5033207;28;20942;-66
2023/06/19 08:07:34;;;;;;;9.47;4.83;;;;;;;23.46;70.87;100874.09;5033098;28;20459;-66
2023/06/19 08:10:01;;;;;;;11.07;5.67;;;;;;;23.43;70.30;100883.97;5033312;28;20541;-66
2023/06/19 08:12:27;;;;;;;10.83;5.10;;;;;;;23.42;69.24;100890.66;5033608;28;20538;-66
2023/06/19 08:14:55;;;;;;;10.90;5.40;;;;;;;23.39;69.45;100875.63;5033106;28;20961;-66
2023/06/19 08:17:22;;;;;;;8.07;4.43;;;;;;;23.38;70.12;100882.34;5033564;28;20439;-67
2023/06/19 08:19:49;;;;;;;11.00;5.10;;;;;;;23.34;71.04;100884.28;5033168;28;20489;-67
2023/06/19 08:22:15;;;;;;;11.00;5.17;;;;;;;23.34;71.16;100886.25;5033270;28;20443;-67
2023/06/19 08:24:42;;;;;;;12.27;5.67;;;;;;;23.35;70.31;100879.53;5033253;28;20439;-67
2023/06/19 08:27:09;;;;;;;9.00;4.73;;;;;;;23.41;67.85;100889.06;5033234;28;20445;-67
2023/06/19 08:29:35;;;;;;;9.57;5.73;;;;;;;23.42;69.68;100891.47;5032815;28;20493;-66
2023/06/19 08:32:04;;;;;;;12.83;5.67;;;;;;;23.47;71.03;100881.22;5033126;28;20543;-67
2023/06/19 08:34:30;;;;;;;9.13;4.73;;;;;;;23.53;73.20;100890.75;5033063;28;20862;-67
2023/06/19 08:36:58;;;;;;;10.13;5.40;;;;;;;23.51;72.72;100888.38;5033177;28;20538;-67
2023/06/19 08:39:24;;;;;;;10.90;5.90;;;;;;;23.52;72.69;100881.66;5032695;28;20490;-67
2023/06/19 08:41:53;;;;;;;10.30;5.07;;;;;;;23.59;74.51;100873.41;5033101;28;20453;-67
2023/06/19 08:44:20;;;;;;;9.33;5.37;;;;;;;23.60;74.43;100866.72;5033026;28;20838;-67
2023/06/19 08:46:46;;;;;;;11.90;5.93;;;;;;;23.67;74.29;100868.78;5033066;28;20865;-67
2023/06/19 08:49:14;;;;;;;9.03;4.63;;;;;;;23.74;73.78;100863.31;5032645;28;21053;-67
2023/06/19 08:51:41;;;;;;;11.23;6.53;;;;;;;23.82;72.41;100870.47;5032904;28;20450;-66
2023/06/19 08:54:09;;;;;;;13.43;5.80;;;;;;;23.88;71.81;100866.16;5032939;28;20441;-67
2023/06/19 08:56:37;;;;;;;12.60;5.90;;;;;;;23.96;71.68;100869.78;5033145;28;20435;-67
2023/06/19 08:59:11;;;;;;;13.77;6.10;;;;;;;24.05;71.95;100874.97;5032823;28;20545;-67
2023/06/19 09:01:38;;;;;;;10.70;5.47;;;;;;;24.10;73.05;100869.06;5032883;28;20834;-67
2023/06/19 09:04:11;;;;;;;9.80;5.27;;;;;;;24.15;70.83;100877.78;5032651;28;20934;-66
2023/06/19 09:06:48;;;;;;;12.20;4.97;;;;;;;24.18;70.21;100881.78;5033640;28;20478;-67
2023/06/19 09:09:15;;;;;;;10.50;5.20;;;;;;;24.22;70.53;100885.38;5036813;28;20830;-68
2023/06/19 09:11:44;;;;;;;10.97;5.60;;;;;;;24.29;73.75;100884.59;5036723;28;20455;-68
2023/06/19 09:14:11;;;;;;;12.70;6.47;;;;;;;24.28;74.28;100883.81;5036618;28;20450;-67
2023/06/19 09:16:40;;;;;;;10.73;5.50;;;;;;;24.26;72.68;100888.94;5036671;28;20838;-67
2023/06/19 09:19:07;;;;;;;11.40;5.87;;;;;;;24.23;73.05;100886.16;5036433;28;20498;-67
2023/06/19 09:21:37;;;;;;;13.00;7.00;;;;;;;24.23;74.59;100884.19;5036554;28;20820;-68
2023/06/19 09:24:07;;;;;;;20.17;8.67;;;;;;;24.22;75.75;100882.59;5036838;28;20469;-66
2023/06/19 09:26:33;;;;;;;17.33;7.07;;;;;;;24.16;73.80;100884.91;5036154;28;20454;-67
2023/06/19 09:29:11;;;;;;;14.80;6.00;;;;;;;24.15;72.42;100888.06;5036139;28;20970;-66
2023/06/19 09:31:37;;;;;;;18.67;8.43;;;;;;;24.17;74.34;100885.69;5036124;28;20430;-68
2023/06/19 09:34:04;;;;;;;34.63;9.57;;;;;;;24.22;76.82;100892.88;5036273;28;20454;-67
2023/06/19 09:36:33;;;;;;;31.30;7.80;;;;;;;24.24;75.58;100896.03;5036420;28;20453;-67
2023/06/19 09:39:01;;;;;;;10.17;5.73;;;;;;;24.29;74.77;100898.44;5036283;28;20532;-67
2023/06/19 09:41:30;;;;;;;17.00;6.37;;;;;;;24.35;73.55;100897.69;5035881;28;20446;-67
2023/06/19 09:43:59;;;;;;;18.63;7.90;;;;;;;24.40;73.10;100891.03;5035850;28;20950;-67
2023/06/19 09:46:31;;;;;;;11.70;6.60;;;;;;;24.49;73.28;100898.97;5036148;28;20508;-66
2023/06/19 09:49:01;;;;;;;10.90;5.80;;;;;;;24.47;71.12;100893.81;5036257;28;20458;-66
2023/06/19 09:51:31;;;;;;;10.30;5.43;;;;;;;24.55;72.24;100880.78;5036016;28;20938;-67
2023/06/19 09:53:59;;;;;;;10.63;6.23;;;;;;;24.68;78.85;100884.81;5035884;28;20493;-67
2023/06/19 09:56:26;;;;;;;13.70;6.57;;;;;;;24.68;80.08;100873.72;5035840;28;20496;-65
2023/06/19 09:58:59;;;;;;;12.20;6.10;;;;;;;24.66;80.30;100868.59;5035407;28;20997;-67
2023/06/19 10:01:28;;;;;;;13.50;6.73;;;;;;;24.65;79.64;100868.97;5035862;28;20505;-67
2023/06/19 10:04:04;;;;;;;11.80;7.07;;;;;;;24.66;78.26;100867.78;5036058;28;20447;-66
2023/06/19 10:06:31;;;;;;;10.60;6.50;;;;;;;24.68;78.03;100865.41;5035380;28;20512;-67
2023/06/19 10:09:07;;;;;;;11.63;5.90;;;;;;;24.65;77.16;100866.97;5035650;28;20502;-66
2023/06/19 10:11:46;;;;;;;10.33;6.43;;;;;;;24.63;76.26;100863.03;5035345;28;20894;-66
2023/06/19 10:14:14;;;;;;;13.17;6.30;;;;;;;24.63;75.02;100854.72;5035618;28;20490;-65
2023/06/19 10:16:41;;;;;;;13.73;6.07;;;;;;;24.65;75.25;100855.09;5035242;28;21000;-67
2023/06/19 10:19:14;;;;;;;11.50;6.80;;;;;;;24.72;77.06;100844.06;5034764;28;20477;-66
2023/06/19 10:21:46;;;;;;;14.10;7.03;;;;;;;24.78;77.03;100841.69;5035489;28;20434;-66
2023/06/19 10:24:18;;;;;;;12.40;6.40;;;;;;;24.80;74.65;100845.66;5035214;28;20423;-66
2023/06/19 10:26:45;;;;;;;13.30;5.90;;;;;;;24.83;71.96;100833.78;5035458;28;20431;-67
2023/06/19 10:29:16;;;;;;;12.50;6.30;;;;;;;24.89;69.93;100826.69;5035255;28;20906;-66
2023/06/19 10:31:44;;;;;;;15.43;5.60;;;;;;;24.99;68.38;100827.09;5035140;28;20497;-66
2023/06/19 10:34:10;;;;;;;13.23;5.27;;;;;;;25.12;68.89;100825.56;5035303;28;20475;-67
2023/06/19 10:36:37;;;;;;;10.70;5.43;;;;;;;25.21;69.60;100812.09;5035195;28;20452;-67
2023/06/19 10:39:04;;;;;;;12.50;6.07;;;;;;;25.21;69.67;100814.88;5034947;28;20470;-68
2023/06/19 10:41:31;;;;;;;12.37;6.90;;;;;;;25.24;69.24;100808.53;5035110;28;20573;-69
2023/06/19 10:43:59;;;;;;;13.00;6.50;;;;;;;25.21;68.87;100809.31;5035104;28;20451;-69
2023/06/19 10:46:30;;;;;;;14.10;5.63;;;;;;;25.26;68.66;100799.81;5035029;28;20443;-68
2023/06/19 10:49:00;;;;;;;12.53;7.30;;;;;;;25.31;67.82;100802.19;5034875;28;20459;-68
2023/06/19 10:51:28;;;;;;;13.40;7.07;;;;;;;25.41;67.13;100799.44;5035143;28;20471;-69
2023/06/19 10:53:55;;;;;;;10.07;6.13;;;;;;;25.56;65.16;100791.09;5034837;28;20952;-69
2023/06/19 10:56:23;;;;;;;14.37;6.70;;;;;;;25.76;65.47;100791.44;5034948;28;20454;-69
2023/06/19 10:58:49;;;;;;;10.90;6.10;;;;;;;25.97;65.73;100799.75;5034693;28;20463;-68
2023/06/19 11:01:16;;;;;;;13.73;6.53;;;;;;;26.09;65.12;100798.53;5034770;28;20497;-68
2023/06/19 11:03:44;;;;;;;11.33;6.27;;;;;;;26.17;63.58;100803.66;5034613;28;20477;-70
2023/06/19 11:06:11;;;;;;;13.47;6.27;;;;;;;26.36;63.37;100810.72;5034500;28;20534;-68
2023/06/19 11:08:37;;;;;;;11.20;6.53;;;;;;;26.53;63.38;100811.06;5034338;28;20551;-68
2023/06/19 11:11:04;;;;;;;10.63;6.03;;;;;;;26.65;62.38;100810.59;5034619;28;20522;-69
2023/06/19 11:13:31;;;;;;;10.93;6.37;;;;;;;26.77;60.50;100803.78;5034276;28;20890;-69
2023/06/19 11:15:59;;;;;;;11.67;5.93;;;;;;;27.03;60.20;100819.09;5034842;28;20451;-69
2023/06/19 11:18:25;;;;;;;10.43;6.40;;;;;;;27.24;59.55;100821.75;5034376;28;20954;-68
2023/06/19 11:20:54;;;;;;;13.00;6.97;;;;;;;27.32;58.27;100809.38;5034202;28;20529;-69